sensor_id;sensor_type;location;lat;lon;timestamp;pressure;altitude;pressure_sealevel;temperature;humidity
68807;BME280;55800;54.272;18.558;2023-01-15T00:01:22;99413.94;;;6.47;74.97
68807;BME280;55800;54.272;18.558;2023-01-15T00:03:53;99409.47;;;6.47;75.11
68807;BME280;55800;54.272;18.558;2023-01-15T00:06:24;99411.28;;;6.47;74.94
68807;BME280;55800;54.272;18.558;2023-01-15T00:08:54;99415.53;;;6.51;75.00
68807;BME280;55800;54.272;18.558;2023-01-15T00:11:23;99402.38;;;6.48;75.13
68807;BME280;55800;54.272;18.558;2023-01-15T00:13:54;99406.81;;;6.47;75.07
68807;BME280;55800;54.272;18.558;2023-01-15T00:16:25;99398.66;;;6.52;75.19
68807;BME280;55800;54.272;18.558;2023-01-15T00:18:56;99400.53;;;6.50;75.09
68807;BME280;55800;54.272;18.558;2023-01-15T00:21:27;99388.91;;;6.52;75.21
68807;BME280;55800;54.272;18.558;2023-01-15T00:23:57;99398.38;;;6.58;75.08
68807;BME280;55800;54.272;18.558;2023-01-15T00:26:43;99402.84;;;6.57;75.16
68807;BME280;55800;54.272;18.558;2023-01-15T00:29:32;99408.22;;;6.56;75.26
68807;BME280;55800;54.272;18.558;2023-01-15T00:32:03;99398.66;;;6.52;75.64
68807;BME280;55800;54.272;18.558;2023-01-15T00:34:34;99398.53;;;6.55;75.43
68807;BME280;55800;54.272;18.558;2023-01-15T00:37:03;99395.53;;;6.62;75.25
68807;BME280;55800;54.272;18.558;2023-01-15T00:39:33;99394.41;;;6.68;75.11
68807;BME280;55800;54.272;18.558;2023-01-15T00:42:02;99391.94;;;6.63;75.33
68807;BME280;55800;54.272;18.558;2023-01-15T00:44:34;99388.34;;;6.64;75.50
68807;BME280;55800;54.272;18.558;2023-01-15T00:47:03;99378.59;;;6.65;75.37
68807;BME280;55800;54.272;18.558;2023-01-15T00:49:33;99369.56;;;6.69;75.25
68807;BME280;55800;54.272;18.558;2023-01-15T00:52:02;99355.34;;;6.70;75.30
68807;BME280;55800;54.272;18.558;2023-01-15T00:54:32;99345.56;;;6.70;75.36
68807;BME280;55800;54.272;18.558;2023-01-15T00:57:01;99328.63;;;6.73;75.43
68807;BME280;55800;54.272;18.558;2023-01-15T00:59:32;99319.75;;;6.74;75.49
68807;BME280;55800;54.272;18.558;2023-01-15T01:02:01;99312.69;;;6.73;75.61
68807;BME280;55800;54.272;18.558;2023-01-15T01:04:31;99283.44;;;6.74;75.68
68807;BME280;55800;54.272;18.558;2023-01-15T01:07:00;99271.78;;;6.77;75.46
68807;BME280;55800;54.272;18.558;2023-01-15T01:09:30;99262.88;;;6.78;75.36
68807;BME280;55800;54.272;18.558;2023-01-15T01:11:59;99263.03;;;6.75;75.54
68807;BME280;55800;54.272;18.558;2023-01-15T01:14:29;99255.13;;;6.73;75.85
68807;BME280;55800;54.272;18.558;2023-01-15T01:17:00;99237.19;;;6.78;75.81
68807;BME280;55800;54.272;18.558;2023-01-15T01:19:29;99232.72;;;6.79;75.71
68807;BME280;55800;54.272;18.558;2023-01-15T01:21:58;99241.66;;;6.78;75.79
68807;BME280;55800;54.272;18.558;2023-01-15T01:24:29;99242.50;;;6.78;75.82
68807;BME280;55800;54.272;18.558;2023-01-15T01:26:58;99259.28;;;6.79;75.78
68807;BME280;55800;54.272;18.558;2023-01-15T01:29:27;99276.97;;;6.80;75.83
68807;BME280;55800;54.272;18.558;2023-01-15T01:31:56;99265.47;;;6.79;75.93
68807;BME280;55800;54.272;18.558;2023-01-15T01:34:27;99270.34;;;6.88;75.71
68807;BME280;55800;54.272;18.558;2023-01-15T01:36:58;99244.47;;;6.92;75.53
68807;BME280;55800;54.272;18.558;2023-01-15T01:39:27;99227.75;;;6.90;75.51
68807;BME280;55800;54.272;18.558;2023-01-15T01:41:56;99233.25;;;6.87;75.67
68807;BME280;55800;54.272;18.558;2023-01-15T01:44:57;99223.41;;;6.89;75.61
68807;BME280;55800;54.272;18.558;2023-01-15T01:47:29;99214.34;;;6.93;75.54
68807;BME280;55800;54.272;18.558;2023-01-15T01:50:04;99201.84;;;6.95;75.56
68807;BME280;55800;54.272;18.558;2023-01-15T01:52:39;99208.72;;;6.99;75.65
68807;BME280;55800;54.272;18.558;2023-01-15T01:55:11;99202.44;;;7.00;75.55
68807;BME280;55800;54.272;18.558;2023-01-15T01:57:42;99207.63;;;7.03;75.38
68807;BME280;55800;54.272;18.558;2023-01-15T02:00:13;99210.28;;;7.03;75.55
68807;BME280;55800;54.272;18.558;2023-01-15T02:02:44;99205.88;;;7.02;75.57
68807;BME280;55800;54.272;18.558;2023-01-15T02:05:24;99196.84;;;7.06;75.57
68807;BME280;55800;54.272;18.558;2023-01-15T02:07:55;99202.78;;;7.11;75.48
68807;BME280;55800;54.272;18.558;2023-01-15T02:10:25;99193.88;;;7.12;75.37
68807;BME280;55800;54.272;18.558;2023-01-15T02:12:55;99199.03;;;7.15;75.56
68807;BME280;55800;54.272;18.558;2023-01-15T02:15:33;99189.97;;;7.19;75.38
68807;BME280;55800;54.272;18.558;2023-01-15T02:18:10;99180.38;;;7.17;75.57
68807;BME280;55800;54.272;18.558;2023-01-15T02:20:45;99177.63;;;7.18;75.40
68807;BME280;55800;54.272;18.558;2023-01-15T02:23:35;99164.16;;;7.21;75.55
68807;BME280;55800;54.272;18.558;2023-01-15T02:26:26;99158.84;;;7.21;75.45
68807;BME280;55800;54.272;18.558;2023-01-15T02:29:00;99160.59;;;7.22;75.50
68807;BME280;55800;54.272;18.558;2023-01-15T02:31:35;99162.38;;;7.22;75.59
68807;BME280;55800;54.272;18.558;2023-01-15T02:34:08;99157.78;;;7.25;75.57
68807;BME280;55800;54.272;18.558;2023-01-15T02:36:42;99164.56;;;7.31;75.40
68807;BME280;55800;54.272;18.558;2023-01-15T02:39:23;99146.88;;;7.30;75.39
68807;BME280;55800;54.272;18.558;2023-01-15T02:41:59;99153.25;;;7.27;75.33
68807;BME280;55800;54.272;18.558;2023-01-15T02:44:40;99146.81;;;7.31;75.50
68807;BME280;55800;54.272;18.558;2023-01-15T02:47:15;99145.09;;;7.30;75.35
68807;BME280;55800;54.272;18.558;2023-01-15T02:49:47;99141.50;;;7.31;75.43
68807;BME280;55800;54.272;18.558;2023-01-15T02:52:23;99135.22;;;7.32;75.28
68807;BME280;55800;54.272;18.558;2023-01-15T02:54:57;99132.56;;;7.32;75.40
68807;BME280;55800;54.272;18.558;2023-01-15T02:57:33;99126.25;;;7.35;75.10
68807;BME280;55800;54.272;18.558;2023-01-15T03:00:10;99127.88;;;7.37;75.15
68807;BME280;55800;54.272;18.558;2023-01-15T03:02:45;99107.22;;;7.42;75.26
68807;BME280;55800;54.272;18.558;2023-01-15T03:05:19;99114.41;;;7.40;74.82
68807;BME280;55800;54.272;18.558;2023-01-15T03:07:53;99106.53;;;7.39;75.12
68807;BME280;55800;54.272;18.558;2023-01-15T03:10:31;99117.16;;;7.39;75.22
68807;BME280;55800;54.272;18.558;2023-01-15T03:13:07;99107.94;;;7.46;74.95
68807;BME280;55800;54.272;18.558;2023-01-15T03:15:52;99105.19;;;7.47;74.75
68807;BME280;55800;54.272;18.558;2023-01-15T03:18:46;99091.81;;;7.49;75.07
68807;BME280;55800;54.272;18.558;2023-01-15T03:21:20;99095.09;;;7.54;74.85
68807;BME280;55800;54.272;18.558;2023-01-15T03:23:54;99096.09;;;7.51;74.98
68807;BME280;55800;54.272;18.558;2023-01-15T03:26:27;99097.97;;;7.49;74.84
68807;BME280;55800;54.272;18.558;2023-01-15T03:28:58;99094.41;;;7.50;75.28
68807;BME280;55800;54.272;18.558;2023-01-15T03:31:29;99090.44;;;7.57;74.91
68807;BME280;55800;54.272;18.558;2023-01-15T03:34:00;99090.44;;;7.57;75.22
68807;BME280;55800;54.272;18.558;2023-01-15T03:36:31;99085.13;;;7.57;75.17
68807;BME280;55800;54.272;18.558;2023-01-15T03:39:02;99083.44;;;7.56;75.21
68807;BME280;55800;54.272;18.558;2023-01-15T03:42:01;99086.88;;;7.58;75.30
68807;BME280;55800;54.272;18.558;2023-01-15T03:44:39;99070.91;;;7.58;75.51
68807;BME280;55800;54.272;18.558;2023-01-15T03:47:23;99084.88;;;7.62;75.82
68807;BME280;55800;54.272;18.558;2023-01-15T03:50:03;99092.19;;;7.58;76.06
68807;BME280;55800;54.272;18.558;2023-01-15T03:52:43;99095.63;;;7.60;76.23
68807;BME280;55800;54.272;18.558;2023-01-15T03:55:18;99096.31;;;7.64;76.24
68807;BME280;55800;54.272;18.558;2023-01-15T03:58:10;99090.97;;;7.64;76.39
68807;BME280;55800;54.272;18.558;2023-01-15T04:00:49;99085.84;;;7.61;76.61
68807;BME280;55800;54.272;18.558;2023-01-15T04:03:23;99083.88;;;7.64;76.57
68807;BME280;55800;54.272;18.558;2023-01-15T04:05:56;99077.69;;;7.64;76.80
68807;BME280;55800;54.272;18.558;2023-01-15T04:08:30;99072.47;;;7.62;77.18
68807;BME280;55800;54.272;18.558;2023-01-15T04:11:01;99066.38;;;7.60;77.16
68807;BME280;55800;54.272;18.558;2023-01-15T04:13:36;99061.81;;;7.62;76.94
68807;BME280;55800;54.272;18.558;2023-01-15T04:16:08;99053.06;;;7.60;77.17
68807;BME280;55800;54.272;18.558;2023-01-15T04:18:39;99055.88;;;7.57;77.44
68807;BME280;55800;54.272;18.558;2023-01-15T04:21:08;99056.84;;;7.56;77.53
68807;BME280;55800;54.272;18.558;2023-01-15T04:23:37;99059.50;;;7.56;77.51
68807;BME280;55800;54.272;18.558;2023-01-15T04:26:06;99061.44;;;7.53;77.23
68807;BME280;55800;54.272;18.558;2023-01-15T04:28:36;99058.19;;;7.48;77.57
68807;BME280;55800;54.272;18.558;2023-01-15T04:31:05;99061.63;;;7.50;77.50
68807;BME280;55800;54.272;18.558;2023-01-15T04:33:34;99060.66;;;7.51;77.53
68807;BME280;55800;54.272;18.558;2023-01-15T04:36:06;99061.44;;;7.53;77.26
68807;BME280;55800;54.272;18.558;2023-01-15T04:38:36;99048.56;;;7.45;77.56
68807;BME280;55800;54.272;18.558;2023-01-15T04:41:06;99039.66;;;7.46;77.62
68807;BME280;55800;54.272;18.558;2023-01-15T04:43:54;99041.22;;;7.50;77.69
68807;BME280;55800;54.272;18.558;2023-01-15T04:46:38;99042.41;;;7.45;77.56
68807;BME280;55800;54.272;18.558;2023-01-15T04:49:10;99046.59;;;7.49;77.92
68807;BME280;55800;54.272;18.558;2023-01-15T04:51:41;99045.25;;;7.42;78.31
68807;BME280;55800;54.272;18.558;2023-01-15T04:54:13;99031.94;;;7.42;78.07
68807;BME280;55800;54.272;18.558;2023-01-15T04:56:44;99030.22;;;7.41;78.10
68807;BME280;55800;54.272;18.558;2023-01-15T04:59:15;99024.03;;;7.40;77.91
68807;BME280;55800;54.272;18.558;2023-01-15T05:01:45;99020.69;;;7.37;78.12
68807;BME280;55800;54.272;18.558;2023-01-15T05:04:29;99026.53;;;7.43;78.18
68807;BME280;55800;54.272;18.558;2023-01-15T05:07:02;99029.03;;;7.46;77.85
68807;BME280;55800;54.272;18.558;2023-01-15T05:09:32;99034.75;;;7.39;78.21
68807;BME280;55800;54.272;18.558;2023-01-15T05:12:01;99038.44;;;7.36;78.24
68807;BME280;55800;54.272;18.558;2023-01-15T05:14:30;99031.56;;;7.32;78.47
68807;BME280;55800;54.272;18.558;2023-01-15T05:16:59;99025.13;;;7.36;78.59
68807;BME280;55800;54.272;18.558;2023-01-15T05:19:29;99022.16;;;7.42;78.32
68807;BME280;55800;54.272;18.558;2023-01-15T05:21:58;99017.94;;;7.38;78.44
68807;BME280;55800;54.272;18.558;2023-01-15T05:24:28;99024.03;;;7.40;78.32
68807;BME280;55800;54.272;18.558;2023-01-15T05:26:58;99021.66;;;7.36;78.51
68807;BME280;55800;54.272;18.558;2023-01-15T05:29:27;99023.19;;;7.40;78.60
68807;BME280;55800;54.272;18.558;2023-01-15T05:31:56;99019.66;;;7.39;78.69
68807;BME280;55800;54.272;18.558;2023-01-15T05:34:25;99014.16;;;7.42;78.59
68807;BME280;55800;54.272;18.558;2023-01-15T05:36:55;98996.28;;;7.46;78.88
68807;BME280;55800;54.272;18.558;2023-01-15T05:39:24;99001.06;;;7.39;79.13
68807;BME280;55800;54.272;18.558;2023-01-15T05:41:55;99004.34;;;7.44;78.87
68807;BME280;55800;54.272;18.558;2023-01-15T05:44:26;99000.72;;;7.45;79.09
68807;BME280;55800;54.272;18.558;2023-01-15T05:46:58;99000.72;;;7.45;79.10
68807;BME280;55800;54.272;18.558;2023-01-15T05:49:29;98995.41;;;7.45;79.18
68807;BME280;55800;54.272;18.558;2023-01-15T05:51:59;99008.53;;;7.48;79.13
68807;BME280;55800;54.272;18.558;2023-01-15T05:54:31;99003.91;;;7.52;78.93
68807;BME280;55800;54.272;18.558;2023-01-15T05:57:03;99000.38;;;7.51;78.86
68807;BME280;55800;54.272;18.558;2023-01-15T05:59:32;99006.56;;;7.52;79.18
68807;BME280;55800;54.272;18.558;2023-01-15T06:02:01;98993.38;;;7.50;79.24
68807;BME280;55800;54.272;18.558;2023-01-15T06:04:31;98981.88;;;7.50;79.29
68807;BME280;55800;54.272;18.558;2023-01-15T06:07:00;98980.84;;;7.52;79.05
68807;BME280;55800;54.272;18.558;2023-01-15T06:09:29;98991.38;;;7.54;79.30
68807;BME280;55800;54.272;18.558;2023-01-15T06:11:58;98986.16;;;7.52;79.46
68807;BME280;55800;54.272;18.558;2023-01-15T06:14:29;98982.53;;;7.53;79.84
68807;BME280;55800;54.272;18.558;2023-01-15T06:16:58;98980.66;;;7.55;79.82
68807;BME280;55800;54.272;18.558;2023-01-15T06:19:27;98984.06;;;7.57;79.29
68807;BME280;55800;54.272;18.558;2023-01-15T06:21:57;98986.94;;;7.54;79.55
68807;BME280;55800;54.272;18.558;2023-01-15T06:24:26;98990.50;;;7.53;79.63
68807;BME280;55800;54.272;18.558;2023-01-15T06:26:55;98982.47;;;7.55;79.55
68807;BME280;55800;54.272;18.558;2023-01-15T06:29:25;98981.50;;;7.56;79.61
68807;BME280;55800;54.272;18.558;2023-01-15T06:31:56;98983.06;;;7.60;79.45
68807;BME280;55800;54.272;18.558;2023-01-15T06:34:25;98983.91;;;7.60;79.66
68807;BME280;55800;54.272;18.558;2023-01-15T06:36:55;98973.28;;;7.60;79.65
68807;BME280;55800;54.272;18.558;2023-01-15T06:39:24;98968.91;;;7.59;79.78
68807;BME280;55800;54.272;18.558;2023-01-15T06:41:53;98976.88;;;7.59;79.98
68807;BME280;55800;54.272;18.558;2023-01-15T06:44:40;98978.59;;;7.60;80.09
68807;BME280;55800;54.272;18.558;2023-01-15T06:47:28;98982.91;;;7.63;79.82
68807;BME280;55800;54.272;18.558;2023-01-15T06:49:58;98980.16;;;7.64;79.73
68807;BME280;55800;54.272;18.558;2023-01-15T06:52:29;98982.72;;;7.66;79.81
68807;BME280;55800;54.272;18.558;2023-01-15T06:54:58;98990.44;;;7.70;79.74
68807;BME280;55800;54.272;18.558;2023-01-15T06:57:27;98990.63;;;7.67;79.59
68807;BME280;55800;54.272;18.558;2023-01-15T06:59:56;98990.63;;;7.67;80.33
68807;BME280;55800;54.272;18.558;2023-01-15T07:02:27;98978.88;;;7.71;80.04
68807;BME280;55800;54.272;18.558;2023-01-15T07:04:56;98986.06;;;7.69;79.87
68807;BME280;55800;54.272;18.558;2023-01-15T07:07:28;98986.22;;;7.66;80.11
68807;BME280;55800;54.272;18.558;2023-01-15T07:09:57;98982.66;;;7.67;79.73
68807;BME280;55800;54.272;18.558;2023-01-15T07:12:26;98993.19;;;7.69;79.75
68807;BME280;55800;54.272;18.558;2023-01-15T07:14:57;98984.25;;;7.70;80.07
68807;BME280;55800;54.272;18.558;2023-01-15T07:17:27;98994.06;;;7.69;80.33
68807;BME280;55800;54.272;18.558;2023-01-15T07:19:57;98987.78;;;7.70;80.27
68807;BME280;55800;54.272;18.558;2023-01-15T07:22:27;98985.88;;;7.72;80.26
68807;BME280;55800;54.272;18.558;2023-01-15T07:24:56;98984.09;;;7.73;80.09
68807;BME280;55800;54.272;18.558;2023-01-15T07:27:25;98989.94;;;7.79;80.10
68807;BME280;55800;54.272;18.558;2023-01-15T07:29:54;98993.34;;;7.81;80.09
68807;BME280;55800;54.272;18.558;2023-01-15T07:32:24;98998.84;;;7.78;80.00
68807;BME280;55800;54.272;18.558;2023-01-15T07:34:54;98983.06;;;7.75;80.07
68807;BME280;55800;54.272;18.558;2023-01-15T07:37:24;98988.28;;;7.77;80.37
68807;BME280;55800;54.272;18.558;2023-01-15T07:39:55;98985.81;;;7.74;80.27
68807;BME280;55800;54.272;18.558;2023-01-15T07:42:25;98983.94;;;7.76;80.72
68807;BME280;55800;54.272;18.558;2023-01-15T07:45:11;98985.38;;;7.81;80.12
68807;BME280;55800;54.272;18.558;2023-01-15T07:47:58;98991.63;;;7.80;80.17
68807;BME280;55800;54.272;18.558;2023-01-15T07:50:47;98993.00;;;7.87;80.11
68807;BME280;55800;54.272;18.558;2023-01-15T07:53:16;98994.81;;;7.87;80.06
68807;BME280;55800;54.272;18.558;2023-01-15T07:55:45;98998.00;;;7.78;80.49
68807;BME280;55800;54.272;18.558;2023-01-15T07:58:15;98997.28;;;7.74;80.29
68807;BME280;55800;54.272;18.558;2023-01-15T08:00:44;98993.72;;;7.75;80.53
68807;BME280;55800;54.272;18.558;2023-01-15T08:03:13;99003.13;;;7.81;80.33
68807;BME280;55800;54.272;18.558;2023-01-15T08:05:42;99002.28;;;7.80;80.23
68807;BME280;55800;54.272;18.558;2023-01-15T08:08:15;99018.22;;;7.80;80.26
68807;BME280;55800;54.272;18.558;2023-01-15T08:10:45;99020.13;;;7.78;80.64
68807;BME280;55800;54.272;18.558;2023-01-15T08:13:28;99038.75;;;7.78;80.97
68807;BME280;55800;54.272;18.558;2023-01-15T08:16:15;99047.25;;;7.85;80.03
68807;BME280;55800;54.272;18.558;2023-01-15T08:18:44;99049.72;;;7.72;78.07
68807;BME280;55800;54.272;18.558;2023-01-15T08:21:14;99055.38;;;7.66;78.19
68807;BME280;55800;54.272;18.558;2023-01-15T08:23:45;99048.00;;;7.56;78.17
68807;BME280;55800;54.272;18.558;2023-01-15T08:26:14;99057.41;;;7.46;78.06
68807;BME280;55800;54.272;18.558;2023-01-15T08:28:43;99063.13;;;7.38;77.94
68807;BME280;55800;54.272;18.558;2023-01-15T08:31:12;99064.56;;;7.28;78.09
68807;BME280;55800;54.272;18.558;2023-01-15T08:33:42;99060.03;;;7.30;77.80
68807;BME280;55800;54.272;18.558;2023-01-15T08:36:11;99058.63;;;7.23;77.88
68807;BME280;55800;54.272;18.558;2023-01-15T08:38:44;99066.09;;;7.17;78.04
68807;BME280;55800;54.272;18.558;2023-01-15T08:41:16;99063.81;;;7.09;78.08
68807;BME280;55800;54.272;18.558;2023-01-15T08:43:46;99067.72;;;7.02;78.10
68807;BME280;55800;54.272;18.558;2023-01-15T08:46:15;99075.41;;;7.08;77.94
68807;BME280;55800;54.272;18.558;2023-01-15T08:48:44;99085.53;;;7.00;78.10
68807;BME280;55800;54.272;18.558;2023-01-15T08:51:15;99085.31;;;6.87;78.46
68807;BME280;55800;54.272;18.558;2023-01-15T08:53:45;99085.56;;;6.83;78.69
68807;BME280;55800;54.272;18.558;2023-01-15T08:56:17;99081.41;;;6.77;78.89
68807;BME280;55800;54.272;18.558;2023-01-15T08:58:47;99073.69;;;6.73;79.07
68807;BME280;55800;54.272;18.558;2023-01-15T09:01:16;99076.19;;;6.76;78.88
68807;BME280;55800;54.272;18.558;2023-01-15T09:03:45;99074.56;;;6.73;78.89
68807;BME280;55800;54.272;18.558;2023-01-15T09:06:14;99076.44;;;6.71;79.15
68807;BME280;55800;54.272;18.558;2023-01-15T09:08:45;99084.63;;;6.67;79.42
68807;BME280;55800;54.272;18.558;2023-01-15T09:11:14;99090.81;;;6.67;79.29
68807;BME280;55800;54.272;18.558;2023-01-15T09:13:43;99098.69;;;6.69;79.31
68807;BME280;55800;54.272;18.558;2023-01-15T09:16:14;99093.53;;;6.66;79.42
68807;BME280;55800;54.272;18.558;2023-01-15T09:18:44;99091.66;;;6.68;79.41
68807;BME280;55800;54.272;18.558;2023-01-15T09:21:13;99090.25;;;6.61;79.04
68807;BME280;55800;54.272;18.558;2023-01-15T09:23:42;99079.53;;;6.62;79.32
68807;BME280;55800;54.272;18.558;2023-01-15T09:26:26;99087.69;;;6.59;79.47
68807;BME280;55800;54.272;18.558;2023-01-15T09:28:56;99087.72;;;6.58;79.67
68807;BME280;55800;54.272;18.558;2023-01-15T09:31:26;99098.53;;;6.55;79.62
68807;BME280;55800;54.272;18.558;2023-01-15T09:33:56;99093.22;;;6.55;79.58
68807;BME280;55800;54.272;18.558;2023-01-15T09:36:27;99081.63;;;6.56;79.65
68807;BME280;55800;54.272;18.558;2023-01-15T09:38:58;99097.56;;;6.56;79.60
68807;BME280;55800;54.272;18.558;2023-01-15T09:41:36;99099.44;;;6.54;79.70
68807;BME280;55800;54.272;18.558;2023-01-15T09:44:44;99102.19;;;6.52;79.67
68807;BME280;55800;54.272;18.558;2023-01-15T09:47:23;99099.53;;;6.52;79.55
68807;BME280;55800;54.272;18.558;2023-01-15T09:50:11;99092.44;;;6.53;79.58
68807;BME280;55800;54.272;18.558;2023-01-15T09:55:45;99098.56;;;6.53;79.64
68807;BME280;55800;54.272;18.558;2023-01-15T09:58:18;99095.09;;;6.53;79.91
68807;BME280;55800;54.272;18.558;2023-01-15T10:00:50;99097.75;;;6.53;79.60
68807;BME280;55800;54.272;18.558;2023-01-15T10:03:33;99086.91;;;6.57;79.50
68807;BME280;55800;54.272;18.558;2023-01-15T10:06:11;99095.56;;;6.61;79.18
68807;BME280;55800;54.272;18.558;2023-01-15T10:08:44;99092.13;;;6.59;79.20
68807;BME280;55800;54.272;18.558;2023-01-15T10:11:31;99103.53;;;6.61;79.04
68807;BME280;55800;54.272;18.558;2023-01-15T10:14:38;99096.47;;;6.60;78.69
68807;BME280;55800;54.272;18.558;2023-01-15T10:17:21;99101.19;;;6.55;78.95
68807;BME280;55800;54.272;18.558;2023-01-15T10:19:53;99094.91;;;6.56;78.57
68807;BME280;55800;54.272;18.558;2023-01-15T10:22:38;99100.09;;;6.59;78.59
68807;BME280;55800;54.272;18.558;2023-01-15T10:25:15;99111.63;;;6.58;78.65
68807;BME280;55800;54.272;18.558;2023-01-15T10:27:46;99115.84;;;6.62;78.47
68807;BME280;55800;54.272;18.558;2023-01-15T10:30:27;99112.50;;;6.58;78.51
68807;BME280;55800;54.272;18.558;2023-01-15T10:33:05;99112.50;;;6.58;78.34
68807;BME280;55800;54.272;18.558;2023-01-15T10:35:45;99108.50;;;6.50;78.79
68807;BME280;55800;54.272;18.558;2023-01-15T10:38:24;99111.22;;;6.48;78.68
68807;BME280;55800;54.272;18.558;2023-01-15T10:44:07;99093.44;;;6.50;78.27
68807;BME280;55800;54.272;18.558;2023-01-15T10:46:40;99089.91;;;6.50;78.32
68807;BME280;55800;54.272;18.558;2023-01-15T10:49:14;99081.47;;;6.42;78.64
68807;BME280;55800;54.272;18.558;2023-01-15T10:51:45;99074.69;;;6.36;78.94
68807;BME280;55800;54.272;18.558;2023-01-15T10:54:22;99071.09;;;6.37;78.94
68807;BME280;55800;54.272;18.558;2023-01-15T10:56:56;99098.41;;;6.39;78.78
68807;BME280;55800;54.272;18.558;2023-01-15T10:59:38;99096.31;;;6.46;78.37
68807;BME280;55800;54.272;18.558;2023-01-15T11:02:21;99088.03;;;6.52;77.64
68807;BME280;55800;54.272;18.558;2023-01-15T11:04:53;99079.47;;;6.47;77.71
68807;BME280;55800;54.272;18.558;2023-01-15T11:07:28;99085.78;;;6.44;77.93
68807;BME280;55800;54.272;18.558;2023-01-15T11:10:02;99097.25;;;6.45;77.88
68807;BME280;55800;54.272;18.558;2023-01-15T11:12:34;99098.84;;;6.49;77.72
68807;BME280;55800;54.272;18.558;2023-01-15T11:15:23;99108.66;;;6.47;77.73
68807;BME280;55800;54.272;18.558;2023-01-15T11:18:22;99106.84;;;6.47;77.51
68807;BME280;55800;54.272;18.558;2023-01-15T11:21:13;99107.25;;;6.40;77.61
68807;BME280;55800;54.272;18.558;2023-01-15T11:23:43;99116.13;;;6.39;77.79
68807;BME280;55800;54.272;18.558;2023-01-15T11:26:18;99110.19;;;6.34;77.94
68807;BME280;55800;54.272;18.558;2023-01-15T11:28:49;99122.28;;;6.39;77.52
68807;BME280;55800;54.272;18.558;2023-01-15T11:31:18;99125.03;;;6.38;77.78
68807;BME280;55800;54.272;18.558;2023-01-15T11:33:58;99127.03;;;6.32;77.83
68807;BME280;55800;54.272;18.558;2023-01-15T11:36:29;99121.72;;;6.32;77.64
68807;BME280;55800;54.272;18.558;2023-01-15T11:38:59;99120.03;;;6.32;77.58
68807;BME280;55800;54.272;18.558;2023-01-15T11:41:30;99125.34;;;6.32;77.42
68807;BME280;55800;54.272;18.558;2023-01-15T11:44:16;99118.50;;;6.26;77.74
68807;BME280;55800;54.272;18.558;2023-01-15T11:47:07;99098.28;;;6.23;77.81
68807;BME280;55800;54.272;18.558;2023-01-15T11:49:57;99084.47;;;6.17;77.79
68807;BME280;55800;54.272;18.558;2023-01-15T11:52:49;99067.81;;;6.13;78.07
68807;BME280;55800;54.272;18.558;2023-01-15T11:55:22;99064.25;;;6.14;78.11
68807;BME280;55800;54.272;18.558;2023-01-15T11:57:53;99072.34;;;6.11;78.43
68807;BME280;55800;54.272;18.558;2023-01-15T12:00:25;99070.44;;;6.15;78.18
68807;BME280;55800;54.272;18.558;2023-01-15T12:02:58;99059.72;;;6.16;78.09
68807;BME280;55800;54.272;18.558;2023-01-15T12:05:33;99055.28;;;6.17;78.10
68807;BME280;55800;54.272;18.558;2023-01-15T12:08:10;99042.88;;;6.17;78.09
68807;BME280;55800;54.272;18.558;2023-01-15T12:10:48;99042.88;;;6.17;78.13
68807;BME280;55800;54.272;18.558;2023-01-15T12:13:59;99052.66;;;6.17;78.19
68807;BME280;55800;54.272;18.558;2023-01-15T12:16:39;99055.34;;;6.15;78.28
68807;BME280;55800;54.272;18.558;2023-01-15T12:19:18;99047.25;;;6.18;77.98
68807;BME280;55800;54.272;18.558;2023-01-15T12:22:16;99039.44;;;6.15;78.27
68807;BME280;55800;54.272;18.558;2023-01-15T12:25:19;99048.34;;;6.14;78.23
68807;BME280;55800;54.272;18.558;2023-01-15T12:27:58;99065.13;;;6.15;78.42
68807;BME280;55800;54.272;18.558;2023-01-15T12:30:38;99073.09;;;6.15;77.99
68807;BME280;55800;54.272;18.558;2023-01-15T12:33:34;99078.31;;;6.16;78.23
68807;BME280;55800;54.272;18.558;2023-01-15T12:36:10;99076.53;;;6.17;77.87
68807;BME280;55800;54.272;18.558;2023-01-15T12:38:49;99068.47;;;6.18;78.17
68807;BME280;55800;54.272;18.558;2023-01-15T12:41:23;99069.41;;;6.17;78.12
68807;BME280;55800;54.272;18.558;2023-01-15T12:44:18;99073.78;;;6.18;78.29
68807;BME280;55800;54.272;18.558;2023-01-15T12:47:09;99081.56;;;6.21;78.01
68807;BME280;55800;54.272;18.558;2023-01-15T12:49:43;99093.94;;;6.22;78.13
68807;BME280;55800;54.272;18.558;2023-01-15T12:52:20;99069.25;;;6.20;78.14
68807;BME280;55800;54.272;18.558;2023-01-15T12:55:12;99078.88;;;6.23;78.14
68807;BME280;55800;54.272;18.558;2023-01-15T12:57:45;99085.88;;;6.24;77.71
68807;BME280;55800;54.272;18.558;2023-01-15T13:00:17;99090.19;;;6.26;77.76
68807;BME280;55800;54.272;18.558;2023-01-15T13:03:00;99109.72;;;6.25;77.98
68807;BME280;55800;54.272;18.558;2023-01-15T13:05:37;99112.28;;;6.27;77.95
68807;BME280;55800;54.272;18.558;2023-01-15T13:08:14;99106.25;;;6.23;78.01
68807;BME280;55800;54.272;18.558;2023-01-15T13:10:50;99103.75;;;6.20;77.99
68807;BME280;55800;54.272;18.558;2023-01-15T13:13:22;99097.66;;;6.18;78.14
68807;BME280;55800;54.272;18.558;2023-01-15T13:16:14;99110.94;;;6.18;78.03
68807;BME280;55800;54.272;18.558;2023-01-15T13:18:55;99122.34;;;6.20;77.87
68807;BME280;55800;54.272;18.558;2023-01-15T13:21:32;99127.63;;;6.20;78.06
68807;BME280;55800;54.272;18.558;2023-01-15T13:27:28;99124.19;;;6.18;77.95
68807;BME280;55800;54.272;18.558;2023-01-15T13:30:13;99109.16;;;6.19;77.91
68807;BME280;55800;54.272;18.558;2023-01-15T13:32:48;99111.72;;;6.20;77.95
68807;BME280;55800;54.272;18.558;2023-01-15T13:35:30;99125.56;;;6.27;77.60
68807;BME280;55800;54.272;18.558;2023-01-15T13:38:02;99114.19;;;6.23;77.71
68807;BME280;55800;54.272;18.558;2023-01-15T13:40:34;99122.16;;;6.23;77.69
68807;BME280;55800;54.272;18.558;2023-01-15T13:43:09;99125.78;;;6.22;77.69
68807;BME280;55800;54.272;18.558;2023-01-15T13:45:50;99126.78;;;6.20;77.67
68807;BME280;55800;54.272;18.558;2023-01-15T13:48:24;99118.88;;;6.18;77.63